Time;durP1;ratioP1;P1;durP2;ratioP2;P2;SDS_P1;SDS_P2;PMS_P1;PMS_P2;Temp;Humidity;BMP_temperature;BMP_pressure;BME280_temperature;BME280_humidity;BME280_pressure;Samples;Min_cycle;Max_cycle;Signal;HPM_P1;HPM_P2
2021/03/09 05:56:12;;;;;;;;;;;;;;;-2.60;74.58;98111.08;1786609;77;21493;31
2021/03/09 05:58:41;;;;;;;;;;;;;;;-2.51;74.16;98113.52;1753435;80;20639;-68
2021/03/09 06:01:10;;;;;;;;;;;;;;;-2.40;73.84;98116.33;1755651;80;20369;-66
2021/03/09 06:03:37;;;;;;;;;;;;;;;-2.30;73.71;98112.32;1748751;80;20544;-66
2021/03/09 06:06:06;;;;;;;;;;;;;;;-2.19;73.18;98114.64;1743058;80;20789;-64
2021/03/09 06:08:33;;;;;;;;;;;;;;;-2.09;72.48;98117.91;1752247;80;21897;-64
2021/03/09 06:11:16;;;;;;;;;;;;;;;-1.98;72.27;98113.27;1752052;79;20467;-65
2021/03/09 06:13:44;;;;;;;;;;;;;;;-1.89;71.72;98119.73;1753441;79;20468;-66
2021/03/09 06:16:11;;;;;;;;;;;;;;;-1.80;71.65;98118.28;1758235;80;20597;-67
2021/03/09 06:18:57;;;;;;;;;;;;;;;-1.72;71.21;98120.88;1753535;79;20656;-68
2021/03/09 06:21:25;;;;;;;;;;;;;;;-1.64;71.07;98131.69;1752260;80;21967;-65
2021/03/09 06:23:53;;;;;;;;;;;;;;;-1.56;70.79;98132.99;1745399;80;20535;-66
2021/03/09 06:26:39;;;;;;;;;;;;;;;-1.50;70.65;98127.20;1698900;81;20609;-67
2021/03/09 06:29:13;;;;;;;;;;;;;;;-1.45;70.52;98133.99;1702185;82;20697;-63
2021/03/09 06:31:58;;;;;;;;;;;;;;;-1.40;70.28;98133.50;1756154;80;20777;-61
2021/03/09 06:34:28;;;;;;;;;;;;;;;-1.36;69.87;98142.03;1751209;80;21859;-69
2021/03/09 06:37:14;;;;;;;;;;;;;;;-1.30;69.70;98143.19;1748026;80;20495;-67
2021/03/09 06:39:46;;;;;;;;;;;;;;;-1.26;69.06;98150.44;1751890;80;20484;-64
2021/03/09 06:42:17;;;;;;;;;;;;;;;-1.22;68.89;98149.14;1750903;80;20769;-66
2021/03/09 06:44:49;;;;;;;;;;;;;;;-1.21;68.60;98158.97;1751868;80;20762;-63
2021/03/09 06:47:17;;;;;;;;;;;;;;;-1.19;68.54;98155.76;1755487;79;21966;-67
2021/03/09 06:49:51;;;;;;;;;;;;;;;-1.15;68.58;98153.68;1754157;80;20480;-66
2021/03/09 06:52:21;;;;;;;;;;;;;;;-1.11;68.74;98160.11;1754416;80;20510;-67
2021/03/09 06:54:51;;;;;;;;;;;;;;;-1.03;69.06;98157.55;1754014;79;20569;-64
2021/03/09 06:57:19;;;;;;;;;;;;;;;-0.98;68.92;98163.83;1747748;80;20617;-67
2021/03/09 06:59:49;;;;;;;;;;;;;;;-0.98;68.87;98170.27;1730130;80;21920;-65
2021/03/09 07:02:18;;;;;;;;;;;;;;;-0.98;69.25;98165.59;1754987;79;20570;-64
2021/03/09 07:04:47;;;;;;;;;;;;;;;-1.02;69.37;98170.28;1750242;80;20578;-63
2021/03/09 07:07:17;;;;;;;;;;;;;;;-1.04;69.56;98174.79;1749408;79;20740;-64
2021/03/09 07:09:59;;;;;;;;;;;;;;;-1.10;70.18;98174.63;1752519;80;20713;-67
2021/03/09 07:12:27;;;;;;;;;;;;;;;-1.13;70.47;98177.52;1761438;80;21919;-64
2021/03/09 07:14:55;;;;;;;;;;;;;;;-1.14;70.76;98191.38;1749300;80;20289;-64
2021/03/09 07:17:25;;;;;;;;;;;;;;;-1.15;70.28;98188.50;1756991;80;20187;-63
2021/03/09 07:19:54;;;;;;;;;;;;;;;-1.15;70.60;98179.47;1761287;80;20609;-66
2021/03/09 07:22:23;;;;;;;;;;;;;;;-1.11;70.78;98177.69;1760824;80;20617;-65
2021/03/09 07:25:12;;;;;;;;;;;;;;;-1.08;70.70;98179.16;1768516;79;20950;-64
2021/03/09 07:27:51;;;;;;;;;;;;;;;-1.07;70.51;98189.28;1744460;80;20478;-65
2021/03/09 07:30:21;;;;;;;;;;;;;;;-1.06;70.64;98181.88;1764922;80;20391;-69
2021/03/09 07:32:56;;;;;;;;;;;;;;;-1.01;70.54;98180.13;1746525;80;20468;-66
2021/03/09 07:35:25;;;;;;;;;;;;;;;-0.97;70.67;98182.69;1743193;80;20595;-63
2021/03/09 07:37:54;;;;;;;;;;;;;;;-0.93;71.12;98187.84;1748759;80;20739;-67
2021/03/09 07:40:24;;;;;;;;;;;;;;;-0.89;70.05;98189.95;1755552;80;20500;-64
2021/03/09 07:42:52;;;;;;;;;;;;;;;-0.88;69.76;98189.47;1756342;80;20201;-66
2021/03/09 07:45:25;;;;;;;;;;;;;;;-0.85;70.02;98191.71;1758600;80;20540;-67
2021/03/09 07:47:58;;;;;;;;;;;;;;;-0.79;69.77;98190.58;1757527;80;20612;-66
2021/03/09 07:50:34;;;;;;;;;;;;;;;-0.72;70.03;98196.41;1760062;80;21728;-63
2021/03/09 07:53:15;;;;;;;;;;;;;;;-0.66;69.80;98190.11;1762790;79;20605;-61
2021/03/09 07:55:48;;;;;;;;;;;;;;;-0.60;69.18;98191.22;1741481;80;20729;-64
2021/03/09 07:58:19;;;;;;;;;;;;;;;-0.55;69.32;98193.63;1746817;80;20777;-65
2021/03/09 08:00:49;;;;;;;;;;;;;;;-0.49;68.63;98191.67;1707269;81;20595;-64
2021/03/09 08:03:17;;;;;;;;;;;;;;;-0.45;68.46;98191.69;1703587;82;22016;-61
2021/03/09 08:05:50;;;;;;;;;;;;;;;-0.44;68.39;98189.91;1704534;83;20476;-64
2021/03/09 08:08:50;;;;;;;;;;;;;;;-0.37;68.45;98193.94;1717350;80;20695;-64
2021/03/09 08:11:28;;;;;;;;;;;;;;;-0.31;69.18;98190.20;1707069;81;20785;-66
2021/03/09 08:14:08;;;;;;;;;;;;;;;-0.18;67.80;98187.91;1733284;80;20675;-62
2021/03/09 08:16:42;;;;;;;;;;;;;;;-0.08;67.06;98188.53;1731743;80;22112;-67
2021/03/09 08:19:25;;;;;;;;;;;;;;;-0.02;66.81;98178.02;1703180;81;20744;-61
2021/03/09 08:21:58;;;;;;;;;;;;;;;0.06;65.98;98184.45;1684915;83;20519;-64
2021/03/09 08:24:42;;;;;;;;;;;;;;;0.13;64.22;98180.70;1699843;82;20752;-61
2021/03/09 08:27:32;;;;;;;;;;;;;;;0.22;65.02;98177.89;1704402;82;20608;-60
2021/03/09 08:30:09;;;;;;;;;;;;;;;0.33;63.45;98177.53;1698395;82;21925;-61
2021/03/09 08:32:38;;;;;;;;;;;;;;;0.47;63.63;98179.88;1700331;83;20661;-62
2021/03/09 08:35:18;;;;;;;;;;;;;;;0.62;61.53;98182.06;1702512;83;20389;-61
2021/03/09 08:37:50;;;;;;;;;;;;;;;0.83;61.66;98176.75;1690301;83;21165;-61
2021/03/09 08:40:20;;;;;;;;;;;;;;;1.03;61.34;98179.19;1695526;82;20680;-59
2021/03/09 08:43:04;;;;;;;;;;;;;;;1.22;61.30;98174.84;1703746;83;21961;-59
2021/03/09 08:45:39;;;;;;;;;;;;;;;1.38;60.22;98173.38;1735460;80;20348;-60
2021/03/09 08:48:12;;;;;;;;;;;;;;;1.54;60.14;98171.94;1748251;80;20489;-65
2021/03/09 08:50:47;;;;;;;;;;;;;;;1.64;60.37;98169.10;1737716;80;20135;-65
2021/03/09 08:53:29;;;;;;;;;;;;;;;1.68;60.41;98166.45;1735418;81;20565;-62
2021/03/09 08:56:00;;;;;;;;;;;;;;;1.69;60.43;98173.73;1741364;80;21899;-64
2021/03/09 08:58:29;;;;;;;;;;;;;;;1.59;59.47;98179.17;1726663;80;20389;-65
2021/03/09 09:00:58;;;;;;;;;;;;;;;1.45;58.24;98173.48;1729663;80;20230;-63
2021/03/09 09:03:37;;;;;;;;;;;;;;;1.34;58.46;98176.52;1737343;80;20478;-63
2021/03/09 09:06:06;;;;;;;;;;;;;;;1.34;59.29;98179.09;1745135;80;20943;-63
2021/03/09 09:08:34;;;;;;;;;;;;;;;1.47;58.96;98172.33;1745509;80;21933;-62
2021/03/09 09:11:02;;;;;;;;;;;;;;;1.68;59.59;98166.95;1733004;80;20226;-62
2021/03/09 09:13:31;;;;;;;;;;;;;;;1.86;57.02;98163.03;1730194;80;20391;-63
2021/03/09 09:15:59;;;;;;;;;;;;;;;1.99;55.61;98163.69;1737986;80;20824;-61
2021/03/09 09:18:29;;;;;;;;;;;;;;;2.07;56.21;98155.82;1739763;80;20673;-66
2021/03/09 09:20:58;;;;;;;;;;;;;;;2.23;55.97;98151.70;1736942;80;21873;-66
2021/03/09 09:23:28;;;;;;;;;;;;;;;2.39;54.98;98151.19;1746349;80;20570;-63
2021/03/09 09:25:57;;;;;;;;;;;;;;;2.44;54.91;98147.57;1744727;80;20402;-64
2021/03/09 09:28:31;;;;;;;;;;;;;;;2.50;54.92;98147.64;1734765;80;20599;-62
2021/03/09 09:31:12;;;;;;;;;;;;;;;2.54;55.19;98146.77;1695087;82;20655;-65
2021/03/09 09:33:52;;;;;;;;;;;;;;;2.56;57.01;98149.50;1699199;82;22488;-65
2021/03/09 09:36:22;;;;;;;;;;;;;;;2.56;55.41;98166.85;1733694;80;20128;-63
2021/03/09 09:38:52;;;;;;;;;;;;;;;2.28;55.26;98158.96;1741847;80;20487;-62
2021/03/09 09:41:21;;;;;;;;;;;;;;;2.09;54.71;98159.02;1737519;80;20371;-63
2021/03/09 09:43:49;;;;;;;;;;;;;;;1.91;55.68;98158.59;1744358;80;20481;-62
2021/03/09 09:46:22;;;;;;;;;;;;;;;1.76;55.06;98159.09;1736767;79;21972;-66
2021/03/09 09:48:50;;;;;;;;;;;;;;;1.66;53.60;98155.98;1734768;81;21032;-66
2021/03/09 09:51:21;;;;;;;;;;;;;;;1.67;52.76;98156.27;1747452;80;20499;-66
2021/03/09 09:53:50;;;;;;;;;;;;;;;1.81;53.28;98154.16;1744301;80;20508;-63
2021/03/09 09:56:22;;;;;;;;;;;;;;;2.03;53.47;98155.85;1735913;80;20619;-64
2021/03/09 09:58:57;;;;;;;;;;;;;;;2.29;52.02;98156.19;1736501;80;21897;-61
2021/03/09 10:01:36;;;;;;;;;;;;;;;2.55;52.30;98158.75;1745523;80;20620;-64
2021/03/09 10:04:11;;;;;;;;;;;;;;;2.77;50.72;98156.48;1741278;80;20440;-61
2021/03/09 10:06:42;;;;;;;;;;;;;;;2.89;49.08;98150.30;1743961;80;20582;-68
2021/03/09 10:09:28;;;;;;;;;;;;;;;2.94;53.67;98153.97;1741999;80;21190;-64
2021/03/09 10:12:00;;;;;;;;;;;;;;;2.86;52.54;98159.77;1741549;80;21954;-65
2021/03/09 10:14:32;;;;;;;;;;;;;;;2.72;53.19;98162.73;1737487;79;20541;-70
2021/03/09 10:17:00;;;;;;;;;;;;;;;2.48;51.69;98163.06;1742254;80;20553;-68
2021/03/09 10:19:34;;;;;;;;;;;;;;;2.34;52.62;98163.41;1718391;81;20547;-69
2021/03/09 10:22:02;;;;;;;;;;;;;;;2.29;51.66;98165.76;1727382;80;20743;-66
2021/03/09 10:24:32;;;;;;;;;;;;;;;2.31;51.92;98163.27;1737098;80;20739;-67
2021/03/09 10:27:00;;;;;;;;;;;;;;;2.38;52.26;98163.87;1736496;80;20979;-63
2021/03/09 10:29:29;;;;;;;;;;;;;;;2.44;49.57;98167.03;1728394;80;20210;-63
2021/03/09 10:31:58;;;;;;;;;;;;;;;2.49;50.01;98167.27;1700294;82;20574;-65
2021/03/09 10:34:38;;;;;;;;;;;;;;;2.50;50.21;98154.62;1701627;83;20593;-63
2021/03/09 10:37:11;;;;;;;;;;;;;;;2.50;52.11;98164.99;1700614;83;21843;-64
2021/03/09 10:39:41;;;;;;;;;;;;;;;2.42;53.19;98161.20;1737501;80;21121;-63
2021/03/09 10:42:33;;;;;;;;;;;;;;;2.28;54.17;98156.37;1748976;78;20479;-64
2021/03/09 10:45:19;;;;;;;;;;;;;;;2.17;55.94;98162.81;1738000;80;20665;-63
2021/03/09 10:47:55;;;;;;;;;;;;;;;2.21;53.55;98167.16;1728059;80;20590;-64
2021/03/09 10:50:25;;;;;;;;;;;;;;;2.22;52.08;98162.28;1749643;80;22044;-63
2021/03/09 10:52:53;;;;;;;;;;;;;;;2.25;52.30;98169.69;1740678;80;20535;-63
2021/03/09 10:55:20;;;;;;;;;;;;;;;2.27;53.56;98165.13;1737173;80;20135;-64
2021/03/09 10:57:48;;;;;;;;;;;;;;;2.28;54.32;98164.95;1726209;80;20361;-63
2021/03/09 11:00:17;;;;;;;;;;;;;;;2.30;54.71;98166.08;1733311;80;20399;-61
2021/03/09 11:02:45;;;;;;;;;;;;;;;2.31;55.47;98162.47;1730815;80;22032;-64
2021/03/09 11:05:14;;;;;;;;;;;;;;;2.36;54.87;98164.05;1736116;80;20429;-69
2021/03/09 11:07:41;;;;;;;;;;;;;;;2.43;54.62;98168.81;1743150;80;20586;-69
2021/03/09 11:10:11;;;;;;;;;;;;;;;2.42;54.56;98159.42;1739063;80;20696;-64
2021/03/09 11:12:39;;;;;;;;;;;;;;;2.43;54.93;98160.23;1738150;80;21906;-63
2021/03/09 11:15:08;;;;;;;;;;;;;;;2.42;55.15;98154.72;1731031;80;21889;-65
2021/03/09 11:17:36;;;;;;;;;;;;;;;2.43;54.77;98164.12;1738441;80;20610;-62
2021/03/09 11:20:05;;;;;;;;;;;;;;;2.41;54.94;98153.92;1735602;79;20211;-64
2021/03/09 11:22:33;;;;;;;;;;;;;;;2.41;55.54;98155.70;1735047;80;20606;-62
2021/03/09 11:25:05;;;;;;;;;;;;;;;2.44;56.00;98153.56;1732481;80;20817;-63
2021/03/09 11:27:33;;;;;;;;;;;;;;;2.53;54.66;98150.34;1744534;80;22080;-68
2021/03/09 11:30:01;;;;;;;;;;;;;;;2.62;54.07;98147.45;1746602;80;20499;-61
2021/03/09 11:32:29;;;;;;;;;;;;;;;2.66;53.75;98135.73;1743468;79;20625;-62
2021/03/09 11:34:57;;;;;;;;;;;;;;;2.70;54.25;98138.26;1733993;80;20516;-62
2021/03/09 11:37:24;;;;;;;;;;;;;;;2.69;54.19;98127.56;1744080;80;20630;-61
2021/03/09 11:39:52;;;;;;;;;;;;;;;2.64;54.62;98132.52;1736222;80;21939;-61
2021/03/09 11:42:20;;;;;;;;;;;;;;;2.50;53.97;98122.19;1743922;80;20467;-60
2021/03/09 11:44:47;;;;;;;;;;;;;;;2.41;55.13;98119.39;1746817;80;20507;-61
2021/03/09 11:47:14;;;;;;;;;;;;;;;2.30;55.31;98115.02;1742626;80;20981;-63
2021/03/09 11:49:42;;;;;;;;;;;;;;;2.31;54.81;98117.09;1737406;80;20611;-63
2021/03/09 11:52:10;;;;;;;;;;;;;;;2.30;53.32;98114.20;1738196;80;22049;-64
2021/03/09 11:54:38;;;;;;;;;;;;;;;2.33;53.61;98108.64;1747303;80;20369;-65
2021/03/09 11:57:06;;;;;;;;;;;;;;;2.48;54.19;98108.59;1748813;80;20286;-62
2021/03/09 11:59:33;;;;;;;;;;;;;;;2.71;54.64;98099.65;1751133;80;20507;-63
2021/03/09 12:02:01;;;;;;;;;;;;;;;3.04;53.68;98099.91;1742494;80;21165;-61
2021/03/09 12:04:29;;;;;;;;;;;;;;;3.31;53.92;98092.33;1744574;80;22012;-60
2021/03/09 12:06:57;;;;;;;;;;;;;;;3.56;52.59;98096.06;1743978;80;21111;-62
2021/03/09 12:09:26;;;;;;;;;;;;;;;3.71;50.68;98091.55;1738974;80;20482;-61
2021/03/09 12:11:54;;;;;;;;;;;;;;;3.73;50.55;98084.38;1744223;80;20470;-62
2021/03/09 12:14:22;;;;;;;;;;;;;;;3.60;51.08;98093.41;1743993;81;21107;-60
2021/03/09 12:16:49;;;;;;;;;;;;;;;3.41;51.13;98084.98;1750597;80;21839;-64
2021/03/09 12:19:17;;;;;;;;;;;;;;;3.22;51.90;98094.27;1735390;80;20531;-60
2021/03/09 12:21:45;;;;;;;;;;;;;;;3.08;51.99;98093.86;1742849;80;20229;-61
2021/03/09 12:24:12;;;;;;;;;;;;;;;2.83;51.12;98085.66;1745860;80;20548;-61
2021/03/09 12:26:40;;;;;;;;;;;;;;;2.72;51.45;98090.88;1749090;80;20642;-63
2021/03/09 12:29:08;;;;;;;;;;;;;;;2.48;50.44;98086.05;1743494;80;21966;-62
2021/03/09 12:31:36;;;;;;;;;;;;;;;2.33;51.22;98087.39;1739530;80;20514;-62
2021/03/09 12:34:04;;;;;;;;;;;;;;;2.19;51.79;98084.36;1741410;80;20880;-63
2021/03/09 12:36:31;;;;;;;;;;;;;;;2.17;52.75;98090.21;1733169;79;20491;-65
2021/03/09 12:39:02;;;;;;;;;;;;;;;2.18;51.89;98094.41;1738438;80;20630;-64
2021/03/09 12:41:38;;;;;;;;;;;;;;;2.22;52.73;98089.19;1694125;80;22129;-66
2021/03/09 12:44:06;;;;;;;;;;;;;;;2.26;53.42;98087.02;1743231;80;20272;-62
2021/03/09 12:46:33;;;;;;;;;;;;;;;2.30;53.00;98086.48;1738045;80;20149;-63
2021/03/09 12:49:01;;;;;;;;;;;;;;;2.39;53.22;98085.05;1737985;80;20717;-62
2021/03/09 12:51:29;;;;;;;;;;;;;;;2.46;52.59;98084.62;1743833;79;20742;-64
2021/03/09 12:53:57;;;;;;;;;;;;;;;2.55;53.14;98082.22;1746452;80;21907;-65
2021/03/09 12:56:27;;;;;;;;;;;;;;;2.65;51.44;98076.23;1741753;79;20575;-66
2021/03/09 12:58:55;;;;;;;;;;;;;;;2.70;51.48;98081.17;1742989;79;20404;-64
2021/03/09 13:01:23;;;;;;;;;;;;;;;2.73;50.50;98074.32;1745631;79;20913;-59
2021/03/09 13:03:51;;;;;;;;;;;;;;;2.78;50.58;98074.24;1739168;80;20729;-66
2021/03/09 13:06:19;;;;;;;;;;;;;;;2.86;50.46;98072.32;1753245;80;21932;-62
2021/03/09 13:08:47;;;;;;;;;;;;;;;2.98;50.68;98076.00;1757269;80;20537;-67
2021/03/09 13:11:18;;;;;;;;;;;;;;;3.05;50.44;98076.05;1756667;81;20199;-61
2021/03/09 13:13:46;;;;;;;;;;;;;;;3.09;50.57;98076.00;1755940;80;20500;-64
2021/03/09 13:16:13;;;;;;;;;;;;;;;3.14;51.25;98075.73;1726223;80;20996;-63
2021/03/09 13:18:42;;;;;;;;;;;;;;;3.12;51.02;98073.00;1749219;81;22036;-63
2021/03/09 13:21:09;;;;;;;;;;;;;;;3.11;51.75;98073.50;1743974;80;20283;-65
2021/03/09 13:23:37;;;;;;;;;;;;;;;3.12;51.43;98072.51;1745285;79;20414;-65
2021/03/09 13:26:05;;;;;;;;;;;;;;;3.09;51.74;98066.41;1754256;79;20772;-63
2021/03/09 13:28:33;;;;;;;;;;;;;;;3.03;50.85;98074.93;1754964;80;20597;-61
2021/03/09 13:31:00;;;;;;;;;;;;;;;3.01;49.64;98074.34;1749436;80;22070;-64
2021/03/09 13:33:28;;;;;;;;;;;;;;;2.94;49.84;98079.17;1765228;80;20367;-65
2021/03/09 13:35:56;;;;;;;;;;;;;;;2.81;50.48;98074.66;1758113;80;20384;-62
2021/03/09 13:38:23;;;;;;;;;;;;;;;2.83;50.90;98077.88;1752773;80;20692;-63
2021/03/09 13:40:52;;;;;;;;;;;;;;;2.89;50.12;98070.63;1756969;80;20477;-63
2021/03/09 13:43:19;;;;;;;;;;;;;;;2.89;49.66;98071.92;1764698;80;22033;-66
2021/03/09 13:45:47;;;;;;;;;;;;;;;2.82;49.17;98075.45;1751215;80;20190;-63
2021/03/09 13:48:15;;;;;;;;;;;;;;;2.76;49.02;98066.64;1743513;80;20140;-63
2021/03/09 13:50:45;;;;;;;;;;;;;;;2.74;50.27;98074.60;1753662;80;21050;-62
2021/03/09 13:53:12;;;;;;;;;;;;;;;2.72;50.92;98074.01;1756241;81;20512;-62
2021/03/09 13:55:40;;;;;;;;;;;;;;;2.72;50.61;98074.01;1747759;80;21760;-60
2021/03/09 13:58:08;;;;;;;;;;;;;;;2.74;50.66;98077.69;1747760;80;20439;-65
2021/03/09 14:00:35;;;;;;;;;;;;;;;2.74;50.25;98072.50;1747842;79;20480;-61
2021/03/09 14:03:03;;;;;;;;;;;;;;;2.74;50.75;98075.90;1762212;80;20824;-60
2021/03/09 14:05:31;;;;;;;;;;;;;;;2.70;51.14;98072.58;1771798;80;20799;-60
2021/03/09 14:07:59;;;;;;;;;;;;;;;2.62;51.23;98076.10;1744840;80;22209;-61
2021/03/09 14:10:26;;;;;;;;;;;;;;;2.48;51.54;98076.97;1762081;80;20449;-60
2021/03/09 14:12:54;;;;;;;;;;;;;;;2.34;52.03;98077.83;1753598;80;20286;-61
2021/03/09 14:15:21;;;;;;;;;;;;;;;2.22;51.59;98077.52;1764233;80;20480;-60
2021/03/09 14:17:49;;;;;;;;;;;;;;;2.15;51.59;98075.34;1759686;81;20757;-60
2021/03/09 14:20:17;;;;;;;;;;;;;;;2.10;51.48;98078.96;1749882;80;21790;-61
2021/03/09 14:22:45;;;;;;;;;;;;;;;2.05;52.15;98077.42;1755180;80;20480;-59
2021/03/09 14:25:14;;;;;;;;;;;;;;;2.05;52.48;98083.09;1759624;80;20594;-59
2021/03/09 14:27:42;;;;;;;;;;;;;;;2.02;53.21;98080.36;1759839;80;20547;-60
2021/03/09 14:30:15;;;;;;;;;;;;;;;2.02;53.26;98080.36;1756433;81;20779;-62
2021/03/09 14:32:43;;;;;;;;;;;;;;;2.01;53.30;98080.08;1752894;80;22006;-62
2021/03/09 14:35:12;;;;;;;;;;;;;;;2.00;53.78;98078.47;1743073;79;20412;-60
2021/03/09 14:37:45;;;;;;;;;;;;;;;1.99;55.00;98078.16;1750789;80;20399;-62
2021/03/09 14:40:14;;;;;;;;;;;;;;;2.02;55.44;98070.52;1759401;80;20799;-63
2021/03/09 14:42:43;;;;;;;;;;;;;;;2.08;55.22;98077.06;1751350;80;20795;-60
2021/03/09 14:45:11;;;;;;;;;;;;;;;2.03;54.63;98080.68;1755184;80;22099;-59
2021/03/09 14:47:40;;;;;;;;;;;;;;;1.94;54.62;98078.70;1753839;79;20527;-61
2021/03/09 14:50:10;;;;;;;;;;;;;;;1.82;54.46;98074.15;1758317;80;20404;-61
2021/03/09 14:52:38;;;;;;;;;;;;;;;1.73;54.42;98075.26;1751042;80;20501;-59
2021/03/09 14:55:09;;;;;;;;;;;;;;;1.66;54.53;98072.55;1756929;80;39237;-59
2021/03/09 14:57:39;;;;;;;;;;;;;;;1.61;54.73;98072.30;1748300;80;21960;-58
2021/03/09 15:00:08;;;;;;;;;;;;;;;1.58;54.85;98073.16;1741348;80;20366;-61
2021/03/09 15:02:35;;;;;;;;;;;;;;;1.53;54.67;98073.20;1750535;80;20615;-59
2021/03/09 15:05:05;;;;;;;;;;;;;;;1.52;54.60;98078.06;1752816;79;20855;-60
2021/03/09 15:07:35;;;;;;;;;;;;;;;1.52;54.18;98069.48;1763907;80;20254;-64
